Time;durP1;ratioP1;P1;durP2;ratioP2;P2;SDS_P1;SDS_P2;PMS_P1;PMS_P2;Temp;Humidity;BMP_temperature;BMP_pressure;BME280_temperature;BME280_humidity;BME280_pressure;Samples;Min_cycle;Max_cycle;Signal;HPM_P1;HPM_P2
2022/08/15 00:00:45;;;;;;;;;;;;;;;20.94;55.31;95545.59;5049569;28;19962;-73
2022/08/15 00:03:20;;;;;;;;;;;;;;;20.94;55.29;95547.50;5048928;28;19953;-73
2022/08/15 00:05:47;;;;;;;;;;;;;;;20.95;56.53;95565.81;5049923;28;19959;-73
2022/08/15 00:08:12;;;;;;;;;;;;;;;20.96;55.34;95571.97;5042651;28;19954;-73
2022/08/15 00:10:38;;;;;;;;;;;;;;;20.93;56.34;95575.22;5046806;28;19963;-73
2022/08/15 00:13:12;;;;;;;;;;;;;;;20.86;56.59;95570.31;5049120;28;20054;-73
2022/08/15 00:15:39;;;;;;;;;;;;;;;20.83;56.60;95562.94;5053119;28;19981;-73
2022/08/15 00:18:05;;;;;;;;;;;;;;;20.80;56.99;95547.56;5044886;28;19953;-73
2022/08/15 00:20:32;;;;;;;;;;;;;;;20.78;57.20;95533.75;5048289;28;19961;-73
2022/08/15 00:22:59;;;;;;;;;;;;;;;20.75;58.55;95543.16;5049928;28;19977;-72
2022/08/15 00:25:24;;;;;;;;;;;;;;;20.72;57.11;95553.63;5042374;28;19959;-73
2022/08/15 00:27:51;;;;;;;;;;;;;;;20.70;57.72;95548.59;5041957;28;20054;-73
2022/08/15 00:30:17;;;;;;;;;;;;;;;20.67;56.87;95546.56;5050185;28;20354;-73
2022/08/15 00:32:52;;;;;;;;;;;;;;;20.66;56.33;95552.94;5046108;28;20012;-73
2022/08/15 00:35:36;;;;;;;;;;;;;;;20.64;58.60;95571.94;5040953;28;20418;-73
2022/08/15 00:38:34;;;;;;;;;;;;;;;20.58;57.46;95570.47;5044076;28;19968;-73
2022/08/15 00:43:50;;;;;;;;;;;;;;;20.46;57.22;95565.66;5044924;28;19957;-73
2022/08/15 00:46:16;;;;;;;;;;;;;;;20.41;58.53;95557.78;5032100;28;20313;-73
2022/08/15 00:48:42;;;;;;;;;;;;;;;20.43;59.27;95560.13;5043285;28;19961;-73
2022/08/15 00:51:21;;;;;;;;;;;;;;;20.40;59.31;95558.88;5044765;28;20470;-73
2022/08/15 00:53:49;;;;;;;;;;;;;;;20.40;59.23;95560.75;5045436;28;19951;-73
2022/08/15 00:56:17;;;;;;;;;;;;;;;20.41;59.05;95567.63;5046844;28;19968;-73
2022/08/15 00:58:44;;;;;;;;;;;;;;;20.42;59.08;95571.88;5039633;28;19958;-72
2022/08/15 01:01:11;;;;;;;;;;;;;;;20.41;59.14;95570.28;5043984;28;19987;-73
2022/08/15 01:03:40;;;;;;;;;;;;;;;20.40;60.23;95580.16;5051970;28;19960;-73
2022/08/15 01:06:07;;;;;;;;;;;;;;;20.39;60.24;95567.97;5043911;28;19954;-73
2022/08/15 01:08:35;;;;;;;;;;;;;;;20.42;60.54;95585.19;5056811;28;19958;-73
2022/08/15 01:11:04;;;;;;;;;;;;;;;20.43;60.78;95576.09;5049052;28;19955;-73
2022/08/15 01:13:31;;;;;;;;;;;;;;;20.44;60.96;95577.69;5044402;28;20327;-73
2022/08/15 01:15:57;;;;;;;;;;;;;;;20.44;60.88;95575.03;5047465;28;19972;-72
2022/08/15 01:18:23;;;;;;;;;;;;;;;20.41;61.50;95580.94;5043010;28;19959;-73
2022/08/15 01:20:51;;;;;;;;;;;;;;;20.37;60.91;95572.81;5045426;28;19962;-73
2022/08/15 01:23:23;;;;;;;;;;;;;;;20.37;61.55;95578.13;5047817;28;19958;-72
2022/08/15 01:26:00;;;;;;;;;;;;;;;20.38;60.93;95573.56;5046322;28;20437;-73
2022/08/15 01:28:28;;;;;;;;;;;;;;;20.40;61.00;95571.41;5045608;28;20429;-73
2022/08/15 01:30:55;;;;;;;;;;;;;;;20.40;60.91;95568.75;5042340;28;19953;-73
2022/08/15 01:33:23;;;;;;;;;;;;;;;20.40;61.67;95579.38;5045368;28;19955;-73
2022/08/15 01:35:49;;;;;;;;;;;;;;;20.39;61.06;95575.13;5045760;28;20367;-73
2022/08/15 01:38:36;;;;;;;;;;;;;;;20.38;60.82;95571.69;5044101;28;19962;-73
2022/08/15 01:41:05;;;;;;;;;;;;;;;20.37;60.64;95569.31;5024400;28;19951;-73
2022/08/15 01:43:33;;;;;;;;;;;;;;;20.36;61.05;95565.88;5041482;28;19955;-73
2022/08/15 01:46:02;;;;;;;;;;;;;;;20.37;60.98;95562.16;5046613;28;19969;-73
2022/08/15 01:48:32;;;;;;;;;;;;;;;20.38;61.15;95557.59;5061700;28;19963;-73
2022/08/15 01:51:00;;;;;;;;;;;;;;;20.39;61.31;95570.63;5042770;28;20420;-73
2022/08/15 01:53:39;;;;;;;;;;;;;;;20.40;61.55;95571.41;5042376;28;19959;-73
2022/08/15 01:56:05;;;;;;;;;;;;;;;20.36;60.66;95554.44;5043650;28;19997;-73
2022/08/15 01:58:35;;;;;;;;;;;;;;;20.35;61.42;95564.31;5047749;28;20411;-73
2022/08/15 02:01:03;;;;;;;;;;;;;;;20.37;61.54;95574.66;5046520;28;20322;-73
2022/08/15 02:03:35;;;;;;;;;;;;;;;20.36;61.29;95576.53;5042765;28;19956;-73
2022/08/15 02:06:06;;;;;;;;;;;;;;;20.34;62.37;95576.06;5043583;28;19966;-73
2022/08/15 02:08:32;;;;;;;;;;;;;;;20.29;63.69;95592.16;5047186;28;19959;-73
2022/08/15 02:10:58;;;;;;;;;;;;;;;20.23;62.30;95577.38;5043740;28;19962;-72
2022/08/15 02:13:24;;;;;;;;;;;;;;;20.21;64.30;95590.97;5044532;28;20037;-73
2022/08/15 02:15:50;;;;;;;;;;;;;;;20.19;63.20;95581.72;5042370;28;19975;-72
2022/08/15 02:18:16;;;;;;;;;;;;;;;20.15;62.48;95576.22;5045934;28;20335;-73
2022/08/15 02:20:42;;;;;;;;;;;;;;;20.10;66.44;95608.28;5049203;28;19959;-73
2022/08/15 02:23:08;;;;;;;;;;;;;;;20.01;64.97;95586.09;5040993;28;20039;-73
2022/08/15 02:25:35;;;;;;;;;;;;;;;19.92;65.84;95583.34;5044908;28;19950;-73
2022/08/15 02:28:01;;;;;;;;;;;;;;;19.86;69.46;95595.19;5043106;28;19962;-73
2022/08/15 02:30:28;;;;;;;;;;;;;;;19.71;67.57;95580.31;5048522;28;19960;-73
2022/08/15 02:32:56;;;;;;;;;;;;;;;19.59;70.14;95572.03;5047095;28;19962;-73
2022/08/15 02:35:22;;;;;;;;;;;;;;;19.51;71.29;95573.53;5046451;28;20351;-73
2022/08/15 02:37:47;;;;;;;;;;;;;;;19.45;72.18;95577.38;5041311;28;19972;-72
2022/08/15 02:40:15;;;;;;;;;;;;;;;19.41;73.78;95582.47;5043627;28;19992;-73
2022/08/15 02:42:45;;;;;;;;;;;;;;;19.34;72.91;95578.63;5036665;28;19981;-73
2022/08/15 02:45:11;;;;;;;;;;;;;;;19.30;71.60;95578.44;5048769;28;20333;-74
2022/08/15 02:47:43;;;;;;;;;;;;;;;19.26;73.42;95574.81;5044977;28;19959;-72
2022/08/15 02:50:10;;;;;;;;;;;;;;;19.24;74.73;95577.75;5044012;28;19954;-73
2022/08/15 02:52:40;;;;;;;;;;;;;;;19.21;73.71;95578.34;5040408;28;19969;-72
2022/08/15 02:55:08;;;;;;;;;;;;;;;19.24;75.12;95580.41;5043419;28;19957;-72
2022/08/15 02:57:34;;;;;;;;;;;;;;;19.27;73.49;95579.03;5047115;28;19972;-73
2022/08/15 03:00:01;;;;;;;;;;;;;;;19.29;73.81;95576.84;5043052;28;19965;-73
2022/08/15 03:02:27;;;;;;;;;;;;;;;19.26;74.82;95583.56;5043536;28;19969;-72
2022/08/15 03:04:53;;;;;;;;;;;;;;;19.20;77.46;95586.59;5038785;28;19959;-72
2022/08/15 03:07:18;;;;;;;;;;;;;;;19.14;74.82;95577.16;5049889;28;20071;-73
2022/08/15 03:09:44;;;;;;;;;;;;;;;19.16;74.23;95573.09;5042582;28;20331;-72
2022/08/15 03:12:14;;;;;;;;;;;;;;;19.19;74.88;95577.03;5038998;28;20312;-73
2022/08/15 03:14:40;;;;;;;;;;;;;;;19.22;74.95;95571.94;5045085;28;19977;-73
2022/08/15 03:17:10;;;;;;;;;;;;;;;19.23;74.63;95570.88;5047445;28;19972;-74
2022/08/15 03:19:37;;;;;;;;;;;;;;;19.25;74.28;95570.56;5045730;28;19955;-73
2022/08/15 03:22:03;;;;;;;;;;;;;;;19.28;75.06;95567.31;5047591;28;19955;-73
2022/08/15 03:24:30;;;;;;;;;;;;;;;19.27;75.08;95574.47;5046101;28;19959;-72
2022/08/15 03:26:56;;;;;;;;;;;;;;;19.29;73.75;95566.22;5050229;28;19954;-74
2022/08/15 03:29:23;;;;;;;;;;;;;;;19.29;74.69;95565.44;5051435;28;19979;-73
2022/08/15 03:31:50;;;;;;;;;;;;;;;19.29;73.87;95566.22;5047911;28;19969;-72
2022/08/15 03:34:18;;;;;;;;;;;;;;;19.30;74.74;95562.50;5048631;28;19955;-73
2022/08/15 03:36:46;;;;;;;;;;;;;;;19.31;75.66;95568.59;5046077;28;20323;-73
2022/08/15 03:39:13;;;;;;;;;;;;;;;19.25;76.45;95562.56;5046883;28;19964;-73
2022/08/15 03:41:39;;;;;;;;;;;;;;;19.23;74.95;95560.25;5048328;28;20444;-73
2022/08/15 03:44:05;;;;;;;;;;;;;;;19.16;72.71;95545.75;5047639;28;20322;-73
2022/08/15 03:46:31;;;;;;;;;;;;;;;19.06;76.55;95558.13;5044594;28;20008;-73
2022/08/15 03:48:57;;;;;;;;;;;;;;;19.02;75.80;95565.13;5042826;28;19969;-73
2022/08/15 03:51:25;;;;;;;;;;;;;;;18.94;75.86;95568.47;5043798;28;19967;-73
2022/08/15 03:53:55;;;;;;;;;;;;;;;18.88;76.58;95568.81;5047499;28;19962;-73
2022/08/15 03:56:23;;;;;;;;;;;;;;;18.81;75.95;95575.31;5052528;28;20342;-73
2022/08/15 03:58:49;;;;;;;;;;;;;;;18.82;77.04;95573.44;5048326;28;19961;-73
2022/08/15 04:01:17;;;;;;;;;;;;;;;18.81;76.63;95579.84;5041324;28;19963;-73
2022/08/15 04:03:44;;;;;;;;;;;;;;;18.82;78.16;95570.78;5043950;28;19953;-72
2022/08/15 04:06:12;;;;;;;;;;;;;;;18.83;77.04;95575.78;5049001;28;19967;-73
2022/08/15 04:08:38;;;;;;;;;;;;;;;18.82;76.82;95571.56;5044352;28;19972;-72
2022/08/15 04:11:05;;;;;;;;;;;;;;;18.81;77.42;95583.25;5044323;28;20455;-72
2022/08/15 04:13:32;;;;;;;;;;;;;;;18.80;76.18;95573.72;5047370;28;19962;-73
2022/08/15 04:15:59;;;;;;;;;;;;;;;18.81;77.19;95577.97;5045622;28;20457;-73
2022/08/15 04:18:25;;;;;;;;;;;;;;;18.77;77.30;95590.25;5048051;28;19972;-72
2022/08/15 04:20:53;;;;;;;;;;;;;;;18.65;76.91;95581.94;5049314;28;20435;-73
2022/08/15 04:23:19;;;;;;;;;;;;;;;18.59;76.99;95591.06;5044255;28;20415;-73
2022/08/15 04:25:44;;;;;;;;;;;;;;;18.57;77.55;95591.34;5046366;28;19962;-73
2022/08/15 04:28:14;;;;;;;;;;;;;;;18.59;77.93;95591.84;5043681;28;19989;-73
2022/08/15 04:30:41;;;;;;;;;;;;;;;18.56;76.19;95597.75;5051611;28;20507;-73
2022/08/15 04:33:07;;;;;;;;;;;;;;;18.56;75.87;95592.44;5045321;28;19962;-73
2022/08/15 04:35:34;;;;;;;;;;;;;;;18.55;76.26;95598.81;5030589;28;19956;-73
2022/08/15 04:38:00;;;;;;;;;;;;;;;18.53;75.50;95600.97;5042305;28;19974;-73
2022/08/15 04:40:28;;;;;;;;;;;;;;;18.50;79.69;95606.06;5045886;28;20365;-73
2022/08/15 04:42:54;;;;;;;;;;;;;;;18.46;77.17;95609.28;5047767;28;19963;-73
2022/08/15 04:45:22;;;;;;;;;;;;;;;18.47;77.69;95612.72;5045201;28;19968;-74
2022/08/15 04:47:49;;;;;;;;;;;;;;;18.48;78.15;95619.63;5033673;28;19958;-72
2022/08/15 04:50:15;;;;;;;;;;;;;;;18.51;77.32;95616.38;5040844;28;19984;-74
2022/08/15 04:52:59;;;;;;;;;;;;;;;18.55;77.73;95620.03;5045799;28;19970;-74
2022/08/15 04:55:25;;;;;;;;;;;;;;;18.56;77.46;95607.56;5034570;28;19958;-73
2022/08/15 04:57:52;;;;;;;;;;;;;;;18.58;76.92;95619.47;5045287;28;19977;-73
2022/08/15 05:00:20;;;;;;;;;;;;;;;18.59;77.09;95615.75;5043859;28;19981;-72
2022/08/15 05:02:58;;;;;;;;;;;;;;;18.58;76.60;95618.66;5049446;28;19958;-73
2022/08/15 05:05:24;;;;;;;;;;;;;;;18.50;77.23;95619.31;5046621;28;19955;-72
2022/08/15 05:07:50;;;;;;;;;;;;;;;18.44;75.87;95610.66;5054354;28;20340;-73
2022/08/15 05:10:16;;;;;;;;;;;;;;;18.41;76.24;95606.69;5045945;28;19970;-73
2022/08/15 05:12:42;;;;;;;;;;;;;;;18.38;76.38;95607.28;5048781;28;19957;-72
2022/08/15 05:15:13;;;;;;;;;;;;;;;18.33;75.50;95604.72;5055747;28;19967;-72
2022/08/15 05:17:39;;;;;;;;;;;;;;;18.30;75.45;95599.97;5046044;28;19977;-72
2022/08/15 05:20:06;;;;;;;;;;;;;;;18.22;75.87;95595.31;5050504;28;20309;-72
2022/08/15 05:22:32;;;;;;;;;;;;;;;18.21;76.39;95583.13;5047658;28;20351;-72
2022/08/15 05:24:58;;;;;;;;;;;;;;;18.20;77.60;95592.16;5042113;28;19959;-72
2022/08/15 05:27:24;;;;;;;;;;;;;;;18.17;76.40;95584.78;5042504;28;20408;-73
2022/08/15 05:29:51;;;;;;;;;;;;;;;18.15;75.18;95581.63;5050720;28;19996;-72
2022/08/15 05:32:20;;;;;;;;;;;;;;;18.14;75.26;95570.22;5045071;28;19964;-72
2022/08/15 05:34:47;;;;;;;;;;;;;;;18.16;75.96;95573.34;5042264;28;19967;-72
2022/08/15 05:37:13;;;;;;;;;;;;;;;18.16;75.75;95565.41;5043466;28;19995;-75
2022/08/15 05:39:40;;;;;;;;;;;;;;;18.19;75.49;95564.06;5047161;28;19965;-74
2022/08/15 05:42:27;;;;;;;;;;;;;;;18.20;76.35;95553.13;5046116;28;19983;-72
2022/08/15 05:45:04;;;;;;;;;;;;;;;18.26;76.69;95556.50;5045527;28;19952;-74
2022/08/15 05:47:33;;;;;;;;;;;;;;;18.31;76.63;95553.78;5043627;28;19961;-74
2022/08/15 05:50:02;;;;;;;;;;;;;;;18.38;76.23;95556.06;5047012;28;19965;-74
2022/08/15 05:52:31;;;;;;;;;;;;;;;18.46;76.73;95560.72;5041884;28;19958;-73
2022/08/15 05:55:14;;;;;;;;;;;;;;;18.50;75.88;95552.94;5043337;28;19967;-75
2022/08/15 05:57:43;;;;;;;;;;;;;;;18.55;75.86;95558.97;5046440;28;19992;-74
2022/08/15 06:00:11;;;;;;;;;;;;;;;18.58;75.37;95566.38;5043685;28;19954;-74
2022/08/15 06:02:42;;;;;;;;;;;;;;;18.63;75.59;95570.81;5049051;28;20060;-74
2022/08/15 06:05:13;;;;;;;;;;;;;;;18.69;75.20;95564.34;5043380;28;20316;-73
2022/08/15 06:07:41;;;;;;;;;;;;;;;18.75;75.07;95573.00;5044329;28;19962;-74
2022/08/15 06:10:13;;;;;;;;;;;;;;;18.79;73.07;95564.19;5039372;28;19969;-74
2022/08/15 06:12:44;;;;;;;;;;;;;;;18.96;75.01;95571.63;5040163;28;20320;-74
2022/08/15 06:15:18;;;;;;;;;;;;;;;19.07;74.72;95572.22;5049947;28;19958;-74
2022/08/15 06:17:48;;;;;;;;;;;;;;;19.33;72.49;95569.88;5031841;28;19981;-74
2022/08/15 06:20:17;;;;;;;;;;;;;;;19.99;72.06;95582.94;5056850;28;19967;-75
2022/08/15 06:22:55;;;;;;;;;;;;;;;20.72;68.21;95575.72;5044773;28;20409;-74
2022/08/15 06:25:21;;;;;;;;;;;;;;;21.50;66.21;95562.00;5024556;28;19956;-74
2022/08/15 06:27:50;;;;;;;;;;;;;;;22.07;64.02;95551.28;5049602;28;19995;-74
2022/08/15 06:30:19;;;;;;;;;;;;;;;22.56;61.94;95539.69;5023356;28;20003;-74
2022/08/15 06:32:54;;;;;;;;;;;;;;;22.89;60.81;95537.25;5046021;28;20340;-74
2022/08/15 06:35:26;;;;;;;;;;;;;;;22.88;59.89;95525.75;5044464;28;19965;-74
2022/08/15 06:38:16;;;;;;;;;;;;;;;23.12;60.16;95529.81;5043493;28;19979;-74
2022/08/15 06:40:48;;;;;;;;;;;;;;;23.34;58.86;95528.00;5030525;28;19962;-74
2022/08/15 06:43:14;;;;;;;;;;;;;;;23.53;56.78;95506.94;5046109;28;19962;-72
2022/08/15 06:45:41;;;;;;;;;;;;;;;23.47;57.35;95513.59;5033781;28;20384;-73
2022/08/15 06:48:09;;;;;;;;;;;;;;;23.62;56.73;95513.06;5039676;28;20005;-73
2022/08/15 06:50:46;;;;;;;;;;;;;;;23.82;55.36;95511.53;5044414;28;19973;-73
2022/08/15 06:53:14;;;;;;;;;;;;;;;23.93;54.73;95503.88;5040633;28;19962;-73
2022/08/15 06:55:44;;;;;;;;;;;;;;;23.58;55.05;95504.09;5043097;28;20462;-73
2022/08/15 06:58:12;;;;;;;;;;;;;;;22.93;56.50;95532.03;5047319;28;20459;-74
2022/08/15 07:00:45;;;;;;;;;;;;;;;22.38;57.73;95550.38;5042239;28;20331;-74
2022/08/15 07:03:30;;;;;;;;;;;;;;;21.93;58.58;95555.22;5042369;28;19952;-73
2022/08/15 07:05:57;;;;;;;;;;;;;;;21.65;60.20;95568.81;5041149;28;19963;-74
2022/08/15 07:08:41;;;;;;;;;;;;;;;21.38;59.87;95561.78;5041183;28;19957;-73
2022/08/15 07:11:22;;;;;;;;;;;;;;;21.09;60.60;95574.53;5030568;28;19957;-73
2022/08/15 07:13:51;;;;;;;;;;;;;;;20.84;60.64;95567.19;5043009;28;19961;-73
2022/08/15 07:16:24;;;;;;;;;;;;;;;20.73;61.07;95564.00;5039395;28;20344;-73
2022/08/15 07:18:52;;;;;;;;;;;;;;;20.70;61.59;95577.91;5043729;28;19963;-73
2022/08/15 07:21:20;;;;;;;;;;;;;;;20.92;61.73;95576.31;5043090;28;19953;-73
2022/08/15 07:24:18;;;;;;;;;;;;;;;21.42;60.65;95552.13;5044673;28;19959;-74
2022/08/15 07:26:46;;;;;;;;;;;;;;;21.78;57.55;95525.19;5009265;28;19970;-74
2022/08/15 07:29:16;;;;;;;;;;;;;;;22.00;57.26;95521.59;5048919;28;19984;-73
2022/08/15 07:31:44;;;;;;;;;;;;;;;22.29;56.13;95523.66;5042864;28;19968;-73
2022/08/15 07:34:21;;;;;;;;;;;;;;;22.59;55.63;95517.66;5041912;28;19965;-74
2022/08/15 07:36:56;;;;;;;;;;;;;;;22.73;55.44;95518.25;5043675;28;19961;-73
2022/08/15 07:39:22;;;;;;;;;;;;;;;22.95;54.48;95501.22;5045462;28;19960;-74
2022/08/15 07:41:48;;;;;;;;;;;;;;;23.16;52.10;95490.63;5042874;28;19959;-74
2022/08/15 07:44:24;;;;;;;;;;;;;;;23.23;52.00;95493.56;5040480;28;19959;-73
2022/08/15 07:46:54;;;;;;;;;;;;;;;23.21;51.61;95495.78;5041719;28;20024;-74
2022/08/15 07:49:21;;;;;;;;;;;;;;;23.29;50.70;95499.53;5044737;28;19963;-73
2022/08/15 07:51:47;;;;;;;;;;;;;;;23.33;50.12;95499.66;5042649;28;20329;-73
2022/08/15 07:54:22;;;;;;;;;;;;;;;23.33;49.59;95497.78;5043204;28;19953;-73
2022/08/15 07:56:49;;;;;;;;;;;;;;;23.29;51.36;95518.25;5040050;28;20426;-73
2022/08/15 07:59:22;;;;;;;;;;;;;;;23.34;50.62;95504.69;5044222;28;19967;-73
2022/08/15 08:01:50;;;;;;;;;;;;;;;23.50;48.33;95481.63;5043346;28;19960;-74
2022/08/15 08:04:27;;;;;;;;;;;;;;;23.70;48.99;95490.00;5041170;28;19963;-74
2022/08/15 08:07:04;;;;;;;;;;;;;;;23.90;49.43;95513.34;5040150;28;19951;-73
2022/08/15 08:09:29;;;;;;;;;;;;;;;24.03;47.23;95489.31;5049223;28;19957;-73
2022/08/15 08:12:02;;;;;;;;;;;;;;;24.08;46.09;95484.53;5045874;28;20010;-73
2022/08/15 08:14:35;;;;;;;;;;;;;;;24.22;46.82;95491.53;5040968;28;19956;-73
2022/08/15 08:17:20;;;;;;;;;;;;;;;24.32;45.21;95483.09;5040814;28;19974;-73
2022/08/15 08:19:45;;;;;;;;;;;;;;;24.39;45.15;95490.59;5047176;28;19960;-73
2022/08/15 08:22:17;;;;;;;;;;;;;;;24.50;46.00;95516.66;5045880;28;19947;-73
2022/08/15 08:24:55;;;;;;;;;;;;;;;24.68;45.24;95532.59;5047257;28;19968;-74
2022/08/15 08:27:33;;;;;;;;;;;;;;;24.89;45.13;95533.31;5049637;28;19968;-74
2022/08/15 08:30:05;;;;;;;;;;;;;;;25.05;43.86;95548.75;5043292;28;19984;-73
2022/08/15 08:32:34;;;;;;;;;;;;;;;25.15;43.32;95553.69;5044800;28;19961;-73
2022/08/15 08:35:13;;;;;;;;;;;;;;;25.18;43.84;95560.28;5045594;28;19960;-74
2022/08/15 08:37:51;;;;;;;;;;;;;;;25.29;43.52;95570.28;5046187;28;20343;-75
2022/08/15 08:43:27;;;;;;;;;;;;;;;25.31;41.76;95568.03;5045210;28;19957;-73
2022/08/15 08:45:56;;;;;;;;;;;;;;;25.34;40.88;95565.81;5047771;28;19953;-74
2022/08/15 08:48:41;;;;;;;;;;;;;;;25.33;43.02;95566.94;5047042;28;20444;-75
2022/08/15 08:51:25;;;;;;;;;;;;;;;25.38;42.29;95569.41;5042071;28;19956;-73
2022/08/15 08:54:09;;;;;;;;;;;;;;;25.52;42.20;95565.25;5038946;28;19957;-74
2022/08/15 08:56:48;;;;;;;;;;;;;;;25.64;41.68;95561.00;5045280;28;19949;-73
2022/08/15 08:59:23;;;;;;;;;;;;;;;25.77;40.59;95551.06;5042111;28;19971;-75
2022/08/15 09:01:52;;;;;;;;;;;;;;;25.93;41.32;95557.31;5049336;28;19971;-73
2022/08/15 09:04:20;;;;;;;;;;;;;;;26.08;40.46;95561.19;5044850;28;19990;-73
2022/08/15 09:06:48;;;;;;;;;;;;;;;26.20;42.17;95563.84;5045838;28;20355;-73
2022/08/15 09:09:32;;;;;;;;;;;;;;;26.28;39.99;95556.78;5039242;28;19951;-73
2022/08/15 09:15:11;;;;;;;;;;;;;;;26.25;39.97;95565.56;5042685;28;19955;-73
2022/08/15 09:17:38;;;;;;;;;;;;;;;26.38;39.00;95563.59;5042107;28;19979;-74
2022/08/15 09:20:11;;;;;;;;;;;;;;;26.43;39.42;95566.81;5043990;28;19969;-74
2022/08/15 09:22:36;;;;;;;;;;;;;;;26.42;38.46;95556.41;5036246;28;19967;-73
2022/08/15 09:25:03;;;;;;;;;;;;;;;26.37;38.56;95556.66;5035249;28;20002;-74
2022/08/15 09:27:36;;;;;;;;;;;;;;;26.42;38.61;95559.13;5047761;28;19963;-75
2022/08/15 09:30:07;;;;;;;;;;;;;;;26.49;38.77;95562.00;5036117;28;19983;-76
2022/08/15 09:33:05;;;;;;;;;;;;;;;26.53;38.61;95563.66;5032879;28;19955;-74
2022/08/15 09:35:34;;;;;;;;;;;;;;;26.57;38.22;95566.47;5021602;28;19975;-74
2022/08/15 09:38:15;;;;;;;;;;;;;;;26.64;37.93;95552.44;5033863;28;19979;-73
2022/08/15 09:40:49;;;;;;;;;;;;;;;26.63;37.96;95546.28;5033380;28;19963;-73
2022/08/15 09:43:32;;;;;;;;;;;;;;;26.67;38.18;95552.53;5034413;28;19961;-74
2022/08/15 09:46:10;;;;;;;;;;;;;;;26.76;38.42;95556.97;5033372;28;19954;-73
2022/08/15 09:48:46;;;;;;;;;;;;;;;26.82;36.00;95542.94;5036564;28;20015;-73
2022/08/15 09:51:34;;;;;;;;;;;;;;;26.91;37.84;95559.69;5035077;28;19952;-75
2022/08/15 09:54:00;;;;;;;;;;;;;;;26.99;36.61;95549.91;5032051;28;19964;-74
2022/08/15 09:56:28;;;;;;;;;;;;;;;27.15;37.99;95557.97;5035572;28;20079;-74
2022/08/15 09:59:06;;;;;;;;;;;;;;;27.24;39.51;95557.84;5034028;28;20318;-73
2022/08/15 10:01:40;;;;;;;;;;;;;;;27.29;37.49;95544.91;5050926;28;19959;-73
2022/08/15 10:04:08;;;;;;;;;;;;;;;27.22;37.38;95549.31;5043075;28;19950;-73
2022/08/15 10:06:51;;;;;;;;;;;;;;;27.24;37.26;95536.31;5051340;28;19963;-73
2022/08/15 10:09:32;;;;;;;;;;;;;;;27.26;36.26;95529.44;5047355;28;19957;-73
2022/08/15 10:12:00;;;;;;;;;;;;;;;27.37;36.94;95524.31;5045187;28;19954;-73
2022/08/15 10:14:39;;;;;;;;;;;;;;;27.45;37.23;95526.06;5048050;28;19952;-74
2022/08/15 10:17:21;;;;;;;;;;;;;;;27.59;37.09;95530.97;5044807;28;19961;-73
2022/08/15 10:19:48;;;;;;;;;;;;;;;27.68;36.85;95520.81;5044146;28;20360;-73
2022/08/15 10:22:24;;;;;;;;;;;;;;;27.84;35.80;95522.66;5037743;28;19953;-72
2022/08/15 10:25:09;;;;;;;;;;;;;;;28.04;35.95;95520.81;5045171;28;20381;-73
2022/08/15 10:27:54;;;;;;;;;;;;;;;27.92;35.97;95509.03;5025196;28;19964;-73
2022/08/15 10:30:23;;;;;;;;;;;;;;;27.72;37.36;95520.88;5045924;28;19973;-74
2022/08/15 10:32:52;;;;;;;;;;;;;;;27.73;35.99;95512.44;5031925;28;19968;-73
2022/08/15 10:35:27;;;;;;;;;;;;;;;27.86;35.42;95505.03;5044426;28;19963;-73
2022/08/15 10:38:02;;;;;;;;;;;;;;;27.78;35.95;95519.47;5042661;28;20335;-74
2022/08/15 10:40:28;;;;;;;;;;;;;;;27.74;35.90;95513.25;5048009;28;19960;-73
2022/08/15 10:43:12;;;;;;;;;;;;;;;27.72;36.53;95512.81;5044170;28;19963;-73
2022/08/15 10:46:08;;;;;;;;;;;;;;;28.03;35.26;95490.38;5043623;28;19964;-73
2022/08/15 10:48:37;;;;;;;;;;;;;;;28.13;33.80;95489.81;5031404;28;19965;-74
2022/08/15 10:51:22;;;;;;;;;;;;;;;27.98;35.08;95504.13;5040469;28;20356;-74
2022/08/15 10:54:06;;;;;;;;;;;;;;;27.84;36.25;95512.66;5039203;28;19958;-73
2022/08/15 10:56:33;;;;;;;;;;;;;;;27.69;35.25;95497.34;5040999;28;19968;-73
2022/08/15 10:59:13;;;;;;;;;;;;;;;27.85;35.07;95497.31;5050236;28;20319;-74
2022/08/15 11:01:39;;;;;;;;;;;;;;;28.21;35.58;95498.84;5048554;28;19957;-73
2022/08/15 11:04:09;;;;;;;;;;;;;;;28.48;34.83;95490.88;5039453;28;19953;-73
2022/08/15 11:06:45;;;;;;;;;;;;;;;28.73;32.60;95475.19;5045501;28;19959;-74
2022/08/15 11:09:17;;;;;;;;;;;;;;;28.92;34.55;95485.91;5049452;28;19957;-73
2022/08/15 11:11:51;;;;;;;;;;;;;;;29.11;32.27;95481.63;5044290;28;20337;-73
2022/08/15 11:14:26;;;;;;;;;;;;;;;29.23;33.99;95480.63;5043768;28;20330;-73
2022/08/15 11:16:52;;;;;;;;;;;;;;;29.25;32.46;95471.03;5043462;28;19956;-73
2022/08/15 11:19:38;;;;;;;;;;;;;;;29.34;33.05;95474.25;5038159;28;19978;-73
2022/08/15 11:22:06;;;;;;;;;;;;;;;29.42;33.83;95471.66;5032710;28;19952;-74
2022/08/15 11:24:34;;;;;;;;;;;;;;;29.48;32.15;95467.50;5043850;28;20450;-73
2022/08/15 11:27:08;;;;;;;;;;;;;;;29.63;33.38;95471.97;5040747;28;19961;-73
2022/08/15 11:29:35;;;;;;;;;;;;;;;29.71;32.82;95467.47;5039302;28;19981;-73
2022/08/15 11:32:01;;;;;;;;;;;;;;;29.82;32.49;95459.50;5043599;28;19965;-73
2022/08/15 11:34:37;;;;;;;;;;;;;;;30.06;33.09;95455.56;5045797;28;20426;-73
2022/08/15 11:37:09;;;;;;;;;;;;;;;30.15;31.93;95450.63;5046637;28;19957;-73
2022/08/15 11:39:38;;;;;;;;;;;;;;;30.06;31.38;95455.56;5043322;28;19965;-73
2022/08/15 11:42:06;;;;;;;;;;;;;;;29.84;31.64;95449.88;5052851;28;20399;-74
2022/08/15 11:44:56;;;;;;;;;;;;;;;29.90;30.73;95440.31;5047143;28;19969;-73
2022/08/15 11:47:22;;;;;;;;;;;;;;;30.07;30.98;95443.56;5032514;28;19972;-73
2022/08/15 11:49:59;;;;;;;;;;;;;;;30.20;31.61;95449.50;5043677;28;19956;-73
2022/08/15 11:52:29;;;;;;;;;;;;;;;30.29;30.61;95450.81;5043934;28;19963;-73
2022/08/15 11:55:11;;;;;;;;;;;;;;;30.04;29.90;95442.41;5052017;28;19955;-73
2022/08/15 11:57:41;;;;;;;;;;;;;;;29.62;31.65;95459.59;5047262;28;19972;-74
2022/08/15 12:00:12;;;;;;;;;;;;;;;29.31;32.25;95455.28;5044989;28;19963;-73
2022/08/15 12:02:38;;;;;;;;;;;;;;;29.04;32.25;95451.75;5041658;28;20410;-74
2022/08/15 12:05:27;;;;;;;;;;;;;;;28.89;31.90;95454.22;5041883;28;20009;-73
2022/08/15 12:07:55;;;;;;;;;;;;;;;28.79;32.09;95454.84;5045258;28;19967;-74
2022/08/15 12:10:30;;;;;;;;;;;;;;;28.99;31.93;95450.16;5049449;28;20418;-73
2022/08/15 12:12:56;;;;;;;;;;;;;;;29.17;31.11;95445.06;5051028;28;20332;-74
2022/08/15 12:15:36;;;;;;;;;;;;;;;29.27;32.21;95444.47;5041870;28;19964;-73
2022/08/15 12:18:07;;;;;;;;;;;;;;;29.50;31.18;95433.59;5041321;28;19983;-75
2022/08/15 12:20:33;;;;;;;;;;;;;;;29.81;31.55;95434.41;5052011;28;20424;-73
2022/08/15 12:23:18;;;;;;;;;;;;;;;30.07;30.43;95425.44;5047389;28;19960;-73
2022/08/15 12:25:43;;;;;;;;;;;;;;;30.35;31.00;95438.53;5037848;28;19966;-73
2022/08/15 12:28:10;;;;;;;;;;;;;;;30.48;30.73;95436.31;5049132;28;20327;-73
2022/08/15 12:30:36;;;;;;;;;;;;;;;30.62;31.33;95443.03;5046710;28;20330;-73
2022/08/15 12:33:02;;;;;;;;;;;;;;;30.54;29.58;95445.66;5041732;28;19960;-73
2022/08/15 12:35:30;;;;;;;;;;;;;;;30.30;29.12;95430.75;5050836;28;19959;-73
2022/08/15 12:37:56;;;;;;;;;;;;;;;30.20;30.46;95442.19;5049929;28;19983;-74
2022/08/15 12:40:23;;;;;;;;;;;;;;;30.05;30.21;95443.97;5042808;28;20331;-74
2022/08/15 12:42:49;;;;;;;;;;;;;;;29.80;30.26;95445.56;5046418;28;20398;-74
2022/08/15 12:45:18;;;;;;;;;;;;;;;29.64;30.74;95451.91;5046354;28;19955;-73
2022/08/15 12:47:45;;;;;;;;;;;;;;;29.34;29.95;95441.84;5047347;28;19953;-73
2022/08/15 12:50:11;;;;;;;;;;;;;;;29.03;29.82;95448.28;5043360;28;19952;-73
2022/08/15 12:52:38;;;;;;;;;;;;;;;28.69;31.02;95455.44;5040468;28;19961;-73
2022/08/15 12:55:05;;;;;;;;;;;;;;;28.42;30.62;95459.94;5048643;28;19948;-74
2022/08/15 12:57:31;;;;;;;;;;;;;;;28.27;31.40;95456.19;5044297;28;19967;-74
2022/08/15 12:59:57;;;;;;;;;;;;;;;28.23;31.97;95475.00;5044255;28;19973;-74
2022/08/15 13:02:24;;;;;;;;;;;;;;;28.16;31.00;95457.91;5043729;28;19961;-74
2022/08/15 13:04:52;;;;;;;;;;;;;;;28.13;33.36;95470.16;5054356;28;19958;-74
2022/08/15 13:07:19;;;;;;;;;;;;;;;28.19;33.20;95471.44;5045128;28;20352;-73
2022/08/15 13:09:45;;;;;;;;;;;;;;;28.31;32.20;95455.13;5049939;28;19957;-73
2022/08/15 13:12:11;;;;;;;;;;;;;;;28.39;32.38;95453.34;5043269;28;20265;-74
2022/08/15 13:14:37;;;;;;;;;;;;;;;28.26;32.31;95450.00;5045312;28;19956;-74